sensor_id;sensor_type;location;lat;lon;timestamp;P1;durP1;ratioP1;P2;durP2;ratioP2
1412;SDS011;701;52.526;13.408;2023-03-05T00:00:10;22.10;;;3.78;;
1412;SDS011;701;52.526;13.408;2023-03-05T00:02:40;17.23;;;2.85;;
1412;SDS011;701;52.526;13.408;2023-03-05T00:05:06;16.52;;;2.83;;
1412;SDS011;701;52.526;13.408;2023-03-05T00:07:33;10.25;;;2.60;;
1412;SDS011;701;52.526;13.408;2023-03-05T00:09:59;14.85;;;2.85;;
1412;SDS011;701;52.526;13.408;2023-03-05T00:12:25;14.95;;;2.90;;
1412;SDS011;701;52.526;13.408;2023-03-05T00:14:52;15.95;;;3.00;;
1412;SDS011;701;52.526;13.408;2023-03-05T00:17:18;12.93;;;2.80;;
1412;SDS011;701;52.526;13.408;2023-03-05T00:19:43;17.38;;;2.88;;
1412;SDS011;701;52.526;13.408;2023-03-05T00:22:09;20.30;;;3.00;;
1412;SDS011;701;52.526;13.408;2023-03-05T00:24:35;17.48;;;2.80;;
1412;SDS011;701;52.526;13.408;2023-03-05T00:27:01;17.87;;;3.83;;
1412;SDS011;701;52.526;13.408;2023-03-05T00:29:28;18.05;;;3.78;;
1412;SDS011;701;52.526;13.408;2023-03-05T00:31:54;15.20;;;3.10;;
1412;SDS011;701;52.526;13.408;2023-03-05T00:34:20;20.20;;;3.00;;
1412;SDS011;701;52.526;13.408;2023-03-05T00:36:50;11.75;;;2.50;;
1412;SDS011;701;52.526;13.408;2023-03-05T00:39:17;19.13;;;2.90;;
1412;SDS011;701;52.526;13.408;2023-03-05T00:41:44;21.77;;;3.28;;
1412;SDS011;701;52.526;13.408;2023-03-05T00:44:10;15.43;;;2.30;;
1412;SDS011;701;52.526;13.408;2023-03-05T00:46:36;16.83;;;2.70;;
1412;SDS011;701;52.526;13.408;2023-03-05T00:49:03;18.30;;;2.50;;
1412;SDS011;701;52.526;13.408;2023-03-05T00:51:29;16.05;;;2.30;;
1412;SDS011;701;52.526;13.408;2023-03-05T00:53:54;11.93;;;2.37;;
1412;SDS011;701;52.526;13.408;2023-03-05T00:56:20;13.63;;;2.35;;
1412;SDS011;701;52.526;13.408;2023-03-05T00:58:46;15.40;;;2.33;;
1412;SDS011;701;52.526;13.408;2023-03-05T01:01:12;14.87;;;2.47;;
1412;SDS011;701;52.526;13.408;2023-03-05T01:03:39;16.83;;;2.20;;
1412;SDS011;701;52.526;13.408;2023-03-05T01:06:05;12.90;;;2.20;;
1412;SDS011;701;52.526;13.408;2023-03-05T01:08:33;10.90;;;2.00;;
1412;SDS011;701;52.526;13.408;2023-03-05T01:11:00;12.43;;;2.07;;
1412;SDS011;701;52.526;13.408;2023-03-05T01:13:26;15.77;;;2.45;;
1412;SDS011;701;52.526;13.408;2023-03-05T01:15:52;16.35;;;2.40;;
1412;SDS011;701;52.526;13.408;2023-03-05T01:18:18;14.90;;;2.33;;
1412;SDS011;701;52.526;13.408;2023-03-05T01:20:44;14.85;;;2.67;;
1412;SDS011;701;52.526;13.408;2023-03-05T01:23:10;16.52;;;2.45;;
1412;SDS011;701;52.526;13.408;2023-03-05T01:25:36;17.25;;;1.90;;
1412;SDS011;701;52.526;13.408;2023-03-05T01:28:02;16.47;;;2.77;;
1412;SDS011;701;52.526;13.408;2023-03-05T01:30:28;13.45;;;1.90;;
1412;SDS011;701;52.526;13.408;2023-03-05T01:32:54;14.13;;;1.75;;
1412;SDS011;701;52.526;13.408;2023-03-05T01:35:21;18.07;;;2.20;;
1412;SDS011;701;52.526;13.408;2023-03-05T01:37:48;13.43;;;2.22;;
1412;SDS011;701;52.526;13.408;2023-03-05T01:40:16;12.20;;;2.03;;
1412;SDS011;701;52.526;13.408;2023-03-05T01:42:59;14.30;;;1.60;;
1412;SDS011;701;52.526;13.408;2023-03-05T01:48:41;9.87;;;1.60;;
1412;SDS011;701;52.526;13.408;2023-03-05T01:51:11;12.02;;;1.80;;
1412;SDS011;701;52.526;13.408;2023-03-05T01:53:37;13.82;;;1.88;;
1412;SDS011;701;52.526;13.408;2023-03-05T01:56:04;10.25;;;1.60;;
1412;SDS011;701;52.526;13.408;2023-03-05T01:58:30;7.20;;;1.67;;
1412;SDS011;701;52.526;13.408;2023-03-05T02:00:56;9.48;;;1.52;;
1412;SDS011;701;52.526;13.408;2023-03-05T02:03:22;15.00;;;1.92;;
1412;SDS011;701;52.526;13.408;2023-03-05T02:05:49;14.48;;;2.00;;
1412;SDS011;701;52.526;13.408;2023-03-05T02:08:16;8.83;;;1.50;;
1412;SDS011;701;52.526;13.408;2023-03-05T02:10:45;8.93;;;1.70;;
1412;SDS011;701;52.526;13.408;2023-03-05T02:13:16;9.23;;;1.67;;
1412;SDS011;701;52.526;13.408;2023-03-05T02:15:44;8.40;;;1.33;;
1412;SDS011;701;52.526;13.408;2023-03-05T02:18:11;8.40;;;1.48;;
1412;SDS011;701;52.526;13.408;2023-03-05T02:20:48;8.23;;;1.42;;
1412;SDS011;701;52.526;13.408;2023-03-05T02:23:18;7.72;;;1.40;;
1412;SDS011;701;52.526;13.408;2023-03-05T02:25:47;12.77;;;1.58;;
1412;SDS011;701;52.526;13.408;2023-03-05T02:28:34;9.50;;;1.30;;
1412;SDS011;701;52.526;13.408;2023-03-05T02:31:12;10.85;;;1.83;;
1412;SDS011;701;52.526;13.408;2023-03-05T02:33:40;11.73;;;1.73;;
1412;SDS011;701;52.526;13.408;2023-03-05T02:36:06;11.13;;;1.52;;
1412;SDS011;701;52.526;13.408;2023-03-05T02:38:33;15.97;;;1.83;;
1412;SDS011;701;52.526;13.408;2023-03-05T02:40:59;6.68;;;1.20;;
1412;SDS011;701;52.526;13.408;2023-03-05T02:43:24;10.75;;;1.88;;
1412;SDS011;701;52.526;13.408;2023-03-05T02:45:51;7.47;;;1.10;;
1412;SDS011;701;52.526;13.408;2023-03-05T02:48:17;7.80;;;1.77;;
1412;SDS011;701;52.526;13.408;2023-03-05T02:50:43;10.45;;;2.53;;
1412;SDS011;701;52.526;13.408;2023-03-05T02:53:10;8.30;;;1.30;;
1412;SDS011;701;52.526;13.408;2023-03-05T02:55:37;7.40;;;1.20;;
1412;SDS011;701;52.526;13.408;2023-03-05T02:58:03;14.60;;;1.67;;
1412;SDS011;701;52.526;13.408;2023-03-05T03:00:29;8.77;;;1.33;;
1412;SDS011;701;52.526;13.408;2023-03-05T03:02:55;12.30;;;1.67;;
1412;SDS011;701;52.526;13.408;2023-03-05T03:05:21;13.55;;;1.30;;
1412;SDS011;701;52.526;13.408;2023-03-05T03:07:47;11.52;;;1.67;;
1412;SDS011;701;52.526;13.408;2023-03-05T03:10:13;7.93;;;1.30;;
1412;SDS011;701;52.526;13.408;2023-03-05T03:12:43;10.45;;;1.25;;
1412;SDS011;701;52.526;13.408;2023-03-05T03:15:10;8.82;;;1.48;;
1412;SDS011;701;52.526;13.408;2023-03-05T03:17:37;9.43;;;1.50;;
1412;SDS011;701;52.526;13.408;2023-03-05T03:20:04;12.70;;;1.40;;
1412;SDS011;701;52.526;13.408;2023-03-05T03:22:31;11.20;;;1.65;;
1412;SDS011;701;52.526;13.408;2023-03-05T03:24:57;9.60;;;1.20;;
1412;SDS011;701;52.526;13.408;2023-03-05T03:27:24;8.50;;;1.20;;
1412;SDS011;701;52.526;13.408;2023-03-05T03:29:49;10.50;;;1.73;;
1412;SDS011;701;52.526;13.408;2023-03-05T03:32:15;16.98;;;2.17;;
1412;SDS011;701;52.526;13.408;2023-03-05T03:34:41;8.63;;;1.40;;
1412;SDS011;701;52.526;13.408;2023-03-05T03:37:08;8.40;;;1.30;;
1412;SDS011;701;52.526;13.408;2023-03-05T03:39:35;9.30;;;2.05;;
1412;SDS011;701;52.526;13.408;2023-03-05T03:42:00;7.78;;;1.40;;
1412;SDS011;701;52.526;13.408;2023-03-05T03:44:26;9.48;;;1.40;;
1412;SDS011;701;52.526;13.408;2023-03-05T03:46:52;10.80;;;1.55;;
1412;SDS011;701;52.526;13.408;2023-03-05T03:49:23;9.23;;;1.42;;
1412;SDS011;701;52.526;13.408;2023-03-05T03:51:50;6.93;;;1.40;;
1412;SDS011;701;52.526;13.408;2023-03-05T03:54:18;7.10;;;1.27;;
1412;SDS011;701;52.526;13.408;2023-03-05T03:56:45;9.48;;;1.48;;
1412;SDS011;701;52.526;13.408;2023-03-05T03:59:11;5.23;;;1.03;;
1412;SDS011;701;52.526;13.408;2023-03-05T04:01:37;6.85;;;1.30;;
1412;SDS011;701;52.526;13.408;2023-03-05T04:04:04;9.80;;;1.33;;
1412;SDS011;701;52.526;13.408;2023-03-05T04:06:30;9.30;;;1.30;;
1412;SDS011;701;52.526;13.408;2023-03-05T04:08:57;8.35;;;1.45;;
1412;SDS011;701;52.526;13.408;2023-03-05T04:11:22;8.03;;;1.47;;
1412;SDS011;701;52.526;13.408;2023-03-05T04:13:48;7.78;;;1.60;;
1412;SDS011;701;52.526;13.408;2023-03-05T04:16:14;12.25;;;1.38;;
1412;SDS011;701;52.526;13.408;2023-03-05T04:18:41;9.40;;;1.48;;
1412;SDS011;701;52.526;13.408;2023-03-05T04:21:07;10.20;;;1.47;;
1412;SDS011;701;52.526;13.408;2023-03-05T04:23:33;8.32;;;1.30;;
1412;SDS011;701;52.526;13.408;2023-03-05T04:25:58;9.63;;;1.83;;
1412;SDS011;701;52.526;13.408;2023-03-05T04:28:24;7.00;;;1.20;;
1412;SDS011;701;52.526;13.408;2023-03-05T04:30:50;8.10;;;1.40;;
1412;SDS011;701;52.526;13.408;2023-03-05T04:33:16;8.07;;;1.33;;
1412;SDS011;701;52.526;13.408;2023-03-05T04:35:42;10.98;;;1.55;;
1412;SDS011;701;52.526;13.408;2023-03-05T04:38:08;11.50;;;1.65;;
1412;SDS011;701;52.526;13.408;2023-03-05T04:40:34;12.88;;;1.67;;
1412;SDS011;701;52.526;13.408;2023-03-05T04:43:00;7.50;;;1.20;;
1412;SDS011;701;52.526;13.408;2023-03-05T04:45:26;13.45;;;1.33;;
1412;SDS011;701;52.526;13.408;2023-03-05T04:47:52;5.50;;;1.40;;
1412;SDS011;701;52.526;13.408;2023-03-05T04:50:18;6.60;;;1.40;;
1412;SDS011;701;52.526;13.408;2023-03-05T04:52:44;7.93;;;1.20;;
1412;SDS011;701;52.526;13.408;2023-03-05T04:55:10;9.88;;;1.65;;
1412;SDS011;701;52.526;13.408;2023-03-05T04:57:37;9.97;;;1.70;;
1412;SDS011;701;52.526;13.408;2023-03-05T05:00:05;7.97;;;1.60;;
1412;SDS011;701;52.526;13.408;2023-03-05T05:02:36;9.45;;;1.70;;
1412;SDS011;701;52.526;13.408;2023-03-05T05:05:02;12.07;;;1.60;;
1412;SDS011;701;52.526;13.408;2023-03-05T05:07:27;8.43;;;1.35;;
1412;SDS011;701;52.526;13.408;2023-03-05T05:09:53;8.38;;;1.42;;
1412;SDS011;701;52.526;13.408;2023-03-05T05:12:19;7.90;;;1.23;;
1412;SDS011;701;52.526;13.408;2023-03-05T05:14:45;4.93;;;1.55;;
1412;SDS011;701;52.526;13.408;2023-03-05T05:17:10;8.73;;;1.37;;
1412;SDS011;701;52.526;13.408;2023-03-05T05:19:36;11.38;;;1.50;;
1412;SDS011;701;52.526;13.408;2023-03-05T05:22:02;11.43;;;1.67;;
1412;SDS011;701;52.526;13.408;2023-03-05T05:24:27;7.93;;;1.10;;
1412;SDS011;701;52.526;13.408;2023-03-05T05:26:54;9.35;;;1.48;;
1412;SDS011;701;52.526;13.408;2023-03-05T05:29:20;13.93;;;1.20;;
1412;SDS011;701;52.526;13.408;2023-03-05T05:31:46;8.90;;;1.45;;
1412;SDS011;701;52.526;13.408;2023-03-05T05:34:12;8.37;;;1.30;;
1412;SDS011;701;52.526;13.408;2023-03-05T05:36:38;11.40;;;1.35;;
1412;SDS011;701;52.526;13.408;2023-03-05T05:39:03;6.83;;;1.60;;
1412;SDS011;701;52.526;13.408;2023-03-05T05:41:29;9.63;;;1.45;;
1412;SDS011;701;52.526;13.408;2023-03-05T05:43:55;6.87;;;1.50;;
1412;SDS011;701;52.526;13.408;2023-03-05T05:46:21;9.23;;;1.77;;
1412;SDS011;701;52.526;13.408;2023-03-05T05:48:49;10.48;;;1.38;;
1412;SDS011;701;52.526;13.408;2023-03-05T05:51:16;7.90;;;1.45;;
1412;SDS011;701;52.526;13.408;2023-03-05T05:53:44;10.67;;;1.30;;
1412;SDS011;701;52.526;13.408;2023-03-05T05:56:11;8.77;;;1.20;;
1412;SDS011;701;52.526;13.408;2023-03-05T05:58:38;8.63;;;1.63;;
1412;SDS011;701;52.526;13.408;2023-03-05T06:03:45;12.63;;;2.15;;
1412;SDS011;701;52.526;13.408;2023-03-05T06:06:11;12.80;;;1.70;;
1412;SDS011;701;52.526;13.408;2023-03-05T06:08:39;13.15;;;1.55;;
1412;SDS011;701;52.526;13.408;2023-03-05T06:11:05;11.88;;;1.83;;
1412;SDS011;701;52.526;13.408;2023-03-05T06:13:31;9.73;;;1.50;;
1412;SDS011;701;52.526;13.408;2023-03-05T06:15:58;10.02;;;1.55;;
1412;SDS011;701;52.526;13.408;2023-03-05T06:18:30;13.87;;;2.30;;
1412;SDS011;701;52.526;13.408;2023-03-05T06:21:01;6.53;;;1.40;;
1412;SDS011;701;52.526;13.408;2023-03-05T06:23:28;8.32;;;1.80;;
1412;SDS011;701;52.526;13.408;2023-03-05T06:25:57;6.43;;;1.60;;
1412;SDS011;701;52.526;13.408;2023-03-05T06:28:24;13.17;;;2.10;;
1412;SDS011;701;52.526;13.408;2023-03-05T06:30:58;7.32;;;1.85;;
1412;SDS011;701;52.526;13.408;2023-03-05T06:33:28;12.68;;;1.85;;
1412;SDS011;701;52.526;13.408;2023-03-05T06:35:54;11.52;;;1.95;;
1412;SDS011;701;52.526;13.408;2023-03-05T06:38:20;6.43;;;1.40;;
1412;SDS011;701;52.526;13.408;2023-03-05T06:40:46;8.05;;;1.30;;
1412;SDS011;701;52.526;13.408;2023-03-05T06:43:12;10.60;;;1.60;;
1412;SDS011;701;52.526;13.408;2023-03-05T06:45:38;8.03;;;1.47;;
1412;SDS011;701;52.526;13.408;2023-03-05T06:48:03;12.43;;;1.90;;
1412;SDS011;701;52.526;13.408;2023-03-05T06:50:29;9.43;;;1.70;;
1412;SDS011;701;52.526;13.408;2023-03-05T06:52:58;12.40;;;1.65;;
1412;SDS011;701;52.526;13.408;2023-03-05T06:55:23;9.43;;;2.08;;
1412;SDS011;701;52.526;13.408;2023-03-05T06:57:49;8.63;;;1.58;;
1412;SDS011;701;52.526;13.408;2023-03-05T07:00:15;9.40;;;1.80;;
1412;SDS011;701;52.526;13.408;2023-03-05T07:02:41;5.68;;;1.40;;
1412;SDS011;701;52.526;13.408;2023-03-05T07:05:07;8.60;;;1.50;;
1412;SDS011;701;52.526;13.408;2023-03-05T07:07:32;11.53;;;1.97;;
1412;SDS011;701;52.526;13.408;2023-03-05T07:09:58;8.77;;;1.70;;
1412;SDS011;701;52.526;13.408;2023-03-05T07:12:24;9.15;;;1.70;;
1412;SDS011;701;52.526;13.408;2023-03-05T07:14:50;7.70;;;1.67;;
1412;SDS011;701;52.526;13.408;2023-03-05T07:17:16;8.55;;;1.60;;
1412;SDS011;701;52.526;13.408;2023-03-05T07:19:42;5.33;;;1.50;;
1412;SDS011;701;52.526;13.408;2023-03-05T07:22:08;8.68;;;1.50;;
1412;SDS011;701;52.526;13.408;2023-03-05T07:24:34;8.60;;;1.60;;
1412;SDS011;701;52.526;13.408;2023-03-05T07:27:00;8.07;;;1.60;;
1412;SDS011;701;52.526;13.408;2023-03-05T07:29:27;7.28;;;1.58;;
1412;SDS011;701;52.526;13.408;2023-03-05T07:31:53;9.40;;;1.33;;
1412;SDS011;701;52.526;13.408;2023-03-05T07:34:19;9.73;;;1.52;;
1412;SDS011;701;52.526;13.408;2023-03-05T07:36:52;8.43;;;1.85;;
1412;SDS011;701;52.526;13.408;2023-03-05T07:39:18;7.03;;;1.27;;
1412;SDS011;701;52.526;13.408;2023-03-05T07:41:44;10.63;;;1.40;;
1412;SDS011;701;52.526;13.408;2023-03-05T07:44:12;7.05;;;1.30;;
1412;SDS011;701;52.526;13.408;2023-03-05T07:46:38;6.75;;;1.23;;
1412;SDS011;701;52.526;13.408;2023-03-05T07:49:03;7.77;;;1.70;;
1412;SDS011;701;52.526;13.408;2023-03-05T07:51:29;9.95;;;1.33;;
1412;SDS011;701;52.526;13.408;2023-03-05T07:53:56;10.40;;;1.50;;
1412;SDS011;701;52.526;13.408;2023-03-05T07:58:59;8.15;;;1.75;;
1412;SDS011;701;52.526;13.408;2023-03-05T08:01:27;7.30;;;1.40;;
1412;SDS011;701;52.526;13.408;2023-03-05T08:03:54;6.27;;;1.37;;
1412;SDS011;701;52.526;13.408;2023-03-05T08:06:20;10.07;;;1.73;;
1412;SDS011;701;52.526;13.408;2023-03-05T08:08:46;7.63;;;1.80;;
1412;SDS011;701;52.526;13.408;2023-03-05T08:11:12;9.50;;;1.80;;
1412;SDS011;701;52.526;13.408;2023-03-05T08:13:40;7.18;;;1.67;;
1412;SDS011;701;52.526;13.408;2023-03-05T08:16:08;8.00;;;1.35;;
1412;SDS011;701;52.526;13.408;2023-03-05T08:18:36;9.00;;;1.58;;
1412;SDS011;701;52.526;13.408;2023-03-05T08:21:02;9.50;;;1.40;;
1412;SDS011;701;52.526;13.408;2023-03-05T08:23:28;5.88;;;1.20;;
1412;SDS011;701;52.526;13.408;2023-03-05T08:25:54;9.85;;;1.67;;
1412;SDS011;701;52.526;13.408;2023-03-05T08:28:21;9.20;;;1.33;;
1412;SDS011;701;52.526;13.408;2023-03-05T08:30:47;6.97;;;1.40;;
1412;SDS011;701;52.526;13.408;2023-03-05T08:33:13;8.85;;;1.60;;
1412;SDS011;701;52.526;13.408;2023-03-05T08:35:42;7.03;;;1.60;;
1412;SDS011;701;52.526;13.408;2023-03-05T08:38:09;9.10;;;1.20;;
1412;SDS011;701;52.526;13.408;2023-03-05T08:40:35;6.55;;;1.33;;
1412;SDS011;701;52.526;13.408;2023-03-05T08:43:03;8.07;;;1.00;;
1412;SDS011;701;52.526;13.408;2023-03-05T08:45:31;7.07;;;1.20;;
1412;SDS011;701;52.526;13.408;2023-03-05T08:47:57;8.13;;;1.10;;
1412;SDS011;701;52.526;13.408;2023-03-05T08:50:22;5.77;;;1.20;;
1412;SDS011;701;52.526;13.408;2023-03-05T08:52:49;8.63;;;1.55;;
1412;SDS011;701;52.526;13.408;2023-03-05T08:55:16;7.35;;;1.25;;
1412;SDS011;701;52.526;13.408;2023-03-05T08:57:41;5.97;;;1.50;;
1412;SDS011;701;52.526;13.408;2023-03-05T09:00:07;7.53;;;1.55;;
1412;SDS011;701;52.526;13.408;2023-03-05T09:02:34;6.82;;;1.60;;
1412;SDS011;701;52.526;13.408;2023-03-05T09:05:01;9.07;;;1.40;;
1412;SDS011;701;52.526;13.408;2023-03-05T09:07:27;10.67;;;1.43;;
1412;SDS011;701;52.526;13.408;2023-03-05T09:09:53;10.13;;;1.50;;
1412;SDS011;701;52.526;13.408;2023-03-05T09:12:18;6.83;;;1.37;;
1412;SDS011;701;52.526;13.408;2023-03-05T09:14:44;12.02;;;1.50;;
1412;SDS011;701;52.526;13.408;2023-03-05T09:17:10;6.60;;;1.13;;
1412;SDS011;701;52.526;13.408;2023-03-05T09:19:36;9.15;;;1.23;;
1412;SDS011;701;52.526;13.408;2023-03-05T09:22:01;6.20;;;1.40;;
1412;SDS011;701;52.526;13.408;2023-03-05T09:24:27;10.02;;;1.45;;
1412;SDS011;701;52.526;13.408;2023-03-05T09:26:56;6.37;;;1.30;;
1412;SDS011;701;52.526;13.408;2023-03-05T09:29:23;10.63;;;1.30;;
1412;SDS011;701;52.526;13.408;2023-03-05T09:31:51;6.82;;;1.40;;
1412;SDS011;701;52.526;13.408;2023-03-05T09:34:17;7.10;;;1.60;;
1412;SDS011;701;52.526;13.408;2023-03-05T09:36:43;4.60;;;1.20;;
1412;SDS011;701;52.526;13.408;2023-03-05T09:39:09;7.20;;;1.27;;
1412;SDS011;701;52.526;13.408;2023-03-05T09:47:47;5.60;;;1.25;;
1412;SDS011;701;52.526;13.408;2023-03-05T09:53:00;5.97;;;1.50;;
1412;SDS011;701;52.526;13.408;2023-03-05T09:55:38;6.90;;;1.38;;
1412;SDS011;701;52.526;13.408;2023-03-05T09:58:15;7.65;;;1.52;;
1412;SDS011;701;52.526;13.408;2023-03-05T10:01:02;6.53;;;1.17;;
1412;SDS011;701;52.526;13.408;2023-03-05T10:14:32;7.00;;;1.40;;
1412;SDS011;701;52.526;13.408;2023-03-05T10:22:28;9.85;;;2.00;;
1412;SDS011;701;52.526;13.408;2023-03-05T10:25:13;5.55;;;1.27;;
1412;SDS011;701;52.526;13.408;2023-03-05T10:27:56;4.05;;;1.27;;
1412;SDS011;701;52.526;13.408;2023-03-05T10:39:23;6.93;;;1.80;;
1412;SDS011;701;52.526;13.408;2023-03-05T10:42:22;8.25;;;2.50;;
1412;SDS011;701;52.526;13.408;2023-03-05T10:44:58;19.43;;;6.77;;
1412;SDS011;701;52.526;13.408;2023-03-05T10:47:31;28.52;;;12.77;;
1412;SDS011;701;52.526;13.408;2023-03-05T10:50:02;12.88;;;4.78;;
1412;SDS011;701;52.526;13.408;2023-03-05T10:53:05;12.30;;;3.38;;
1412;SDS011;701;52.526;13.408;2023-03-05T10:55:34;9.07;;;3.65;;
1412;SDS011;701;52.526;13.408;2023-03-05T10:58:00;15.57;;;3.90;;
1412;SDS011;701;52.526;13.408;2023-03-05T11:00:34;12.10;;;4.75;;
1412;SDS011;701;52.526;13.408;2023-03-05T11:03:07;8.73;;;3.15;;
1412;SDS011;701;52.526;13.408;2023-03-05T11:16:15;8.60;;;3.05;;
1412;SDS011;701;52.526;13.408;2023-03-05T11:18:43;9.23;;;3.03;;
1412;SDS011;701;52.526;13.408;2023-03-05T11:21:21;10.70;;;4.35;;
1412;SDS011;701;52.526;13.408;2023-03-05T11:24:05;10.23;;;3.27;;
1412;SDS011;701;52.526;13.408;2023-03-05T11:26:52;9.57;;;2.40;;
1412;SDS011;701;52.526;13.408;2023-03-05T11:29:21;7.25;;;2.00;;
1412;SDS011;701;52.526;13.408;2023-03-05T11:31:50;14.15;;;3.50;;
1412;SDS011;701;52.526;13.408;2023-03-05T11:39:25;10.43;;;2.40;;
1412;SDS011;701;52.526;13.408;2023-03-05T11:44:50;7.57;;;1.83;;
1412;SDS011;701;52.526;13.408;2023-03-05T11:47:22;11.50;;;3.10;;
1412;SDS011;701;52.526;13.408;2023-03-05T11:49:54;7.05;;;1.65;;
1412;SDS011;701;52.526;13.408;2023-03-05T11:52:33;4.15;;;1.23;;
1412;SDS011;701;52.526;13.408;2023-03-05T11:55:17;7.60;;;1.25;;
1412;SDS011;701;52.526;13.408;2023-03-05T11:57:51;7.40;;;1.50;;
1412;SDS011;701;52.526;13.408;2023-03-05T12:00:40;9.07;;;1.80;;
1412;SDS011;701;52.526;13.408;2023-03-05T12:03:18;7.63;;;2.03;;
1412;SDS011;701;52.526;13.408;2023-03-05T12:05:48;6.05;;;1.58;;
1412;SDS011;701;52.526;13.408;2023-03-05T12:08:20;11.82;;;1.92;;
1412;SDS011;701;52.526;13.408;2023-03-05T12:10:51;5.27;;;1.40;;
1412;SDS011;701;52.526;13.408;2023-03-05T12:13:28;8.93;;;1.70;;
1412;SDS011;701;52.526;13.408;2023-03-05T12:16:05;7.53;;;1.90;;
1412;SDS011;701;52.526;13.408;2023-03-05T12:21:25;8.13;;;1.90;;
1412;SDS011;701;52.526;13.408;2023-03-05T12:24:52;7.43;;;1.80;;
1412;SDS011;701;52.526;13.408;2023-03-05T12:32:49;7.13;;;1.90;;
1412;SDS011;701;52.526;13.408;2023-03-05T12:35:03;11.35;;;1.67;;
1412;SDS011;701;52.526;13.408;2023-03-05T12:52:56;7.30;;;1.73;;
1412;SDS011;701;52.526;13.408;2023-03-05T12:55:29;10.40;;;2.35;;
1412;SDS011;701;52.526;13.408;2023-03-05T13:00:51;4.68;;;1.35;;
1412;SDS011;701;52.526;13.408;2023-03-05T13:03:39;7.47;;;1.50;;
1412;SDS011;701;52.526;13.408;2023-03-05T13:06:35;7.53;;;1.60;;
1412;SDS011;701;52.526;13.408;2023-03-05T13:09:15;8.93;;;1.88;;
1412;SDS011;701;52.526;13.408;2023-03-05T13:11:49;5.15;;;1.30;;
1412;SDS011;701;52.526;13.408;2023-03-05T13:14:34;9.80;;;2.00;;
1412;SDS011;701;52.526;13.408;2023-03-05T13:19:53;8.40;;;2.30;;
1412;SDS011;701;52.526;13.408;2023-03-05T13:22:20;9.02;;;1.73;;
1412;SDS011;701;52.526;13.408;2023-03-05T13:25:34;5.85;;;1.90;;
1412;SDS011;701;52.526;13.408;2023-03-05T13:27:39;7.07;;;2.13;;
1412;SDS011;701;52.526;13.408;2023-03-05T13:30:18;8.68;;;2.30;;
1412;SDS011;701;52.526;13.408;2023-03-05T13:32:48;10.68;;;2.42;;
1412;SDS011;701;52.526;13.408;2023-03-05T13:35:16;8.05;;;3.30;;
1412;SDS011;701;52.526;13.408;2023-03-05T13:37:42;8.05;;;2.05;;
1412;SDS011;701;52.526;13.408;2023-03-05T13:40:22;9.13;;;1.70;;
1412;SDS011;701;52.526;13.408;2023-03-05T13:42:50;6.30;;;1.63;;
1412;SDS011;701;52.526;13.408;2023-03-05T13:48:01;6.60;;;1.70;;
1412;SDS011;701;52.526;13.408;2023-03-05T13:50:31;8.38;;;2.00;;
1412;SDS011;701;52.526;13.408;2023-03-05T13:55:43;7.18;;;1.85;;
1412;SDS011;701;52.526;13.408;2023-03-05T14:03:55;9.40;;;1.80;;
1412;SDS011;701;52.526;13.408;2023-03-05T14:06:32;7.78;;;1.95;;
1412;SDS011;701;52.526;13.408;2023-03-05T14:09:07;5.45;;;1.50;;
1412;SDS011;701;52.526;13.408;2023-03-05T14:14:29;5.82;;;1.40;;
1412;SDS011;701;52.526;13.408;2023-03-05T14:23:01;6.80;;;1.70;;
1412;SDS011;701;52.526;13.408;2023-03-05T14:25:49;7.93;;;1.60;;
1412;SDS011;701;52.526;13.408;2023-03-05T14:30:48;7.88;;;2.03;;
1412;SDS011;701;52.526;13.408;2023-03-05T14:35:57;7.47;;;1.63;;
1412;SDS011;701;52.526;13.408;2023-03-05T14:38:26;7.75;;;1.42;;
1412;SDS011;701;52.526;13.408;2023-03-05T14:41:17;6.75;;;1.40;;
1412;SDS011;701;52.526;13.408;2023-03-05T14:43:51;6.38;;;1.40;;
1412;SDS011;701;52.526;13.408;2023-03-05T14:46:17;6.93;;;1.30;;
1412;SDS011;701;52.526;13.408;2023-03-05T14:48:43;7.68;;;1.40;;
1412;SDS011;701;52.526;13.408;2023-03-05T14:51:09;8.07;;;1.50;;
1412;SDS011;701;52.526;13.408;2023-03-05T14:53:39;5.28;;;1.15;;
1412;SDS011;701;52.526;13.408;2023-03-05T14:56:16;7.97;;;1.30;;
1412;SDS011;701;52.526;13.408;2023-03-05T14:58:46;5.82;;;1.10;;
1412;SDS011;701;52.526;13.408;2023-03-05T15:01:12;6.80;;;1.20;;
1412;SDS011;701;52.526;13.408;2023-03-05T15:03:37;6.88;;;1.40;;
1412;SDS011;701;52.526;13.408;2023-03-05T15:06:05;6.10;;;1.38;;
1412;SDS011;701;52.526;13.408;2023-03-05T15:08:34;8.53;;;1.40;;
1412;SDS011;701;52.526;13.408;2023-03-05T15:11:00;5.97;;;1.40;;
1412;SDS011;701;52.526;13.408;2023-03-05T15:13:27;5.25;;;1.38;;
1412;SDS011;701;52.526;13.408;2023-03-05T15:15:53;6.18;;;1.30;;
1412;SDS011;701;52.526;13.408;2023-03-05T15:18:20;6.32;;;1.40;;
1412;SDS011;701;52.526;13.408;2023-03-05T15:20:47;4.45;;;1.00;;
1412;SDS011;701;52.526;13.408;2023-03-05T15:23:19;8.10;;;1.40;;
1412;SDS011;701;52.526;13.408;2023-03-05T15:25:45;6.35;;;1.13;;
1412;SDS011;701;52.526;13.408;2023-03-05T15:28:11;7.20;;;1.90;;
1412;SDS011;701;52.526;13.408;2023-03-05T15:30:38;6.38;;;1.50;;
1412;SDS011;701;52.526;13.408;2023-03-05T15:33:07;8.50;;;1.00;;
1412;SDS011;701;52.526;13.408;2023-03-05T15:35:35;6.03;;;1.27;;
1412;SDS011;701;52.526;13.408;2023-03-05T15:38:00;6.93;;;1.55;;
1412;SDS011;701;52.526;13.408;2023-03-05T15:40:26;7.35;;;1.83;;
1412;SDS011;701;52.526;13.408;2023-03-05T15:42:53;6.17;;;1.60;;
1412;SDS011;701;52.526;13.408;2023-03-05T15:45:20;9.52;;;1.30;;
1412;SDS011;701;52.526;13.408;2023-03-05T15:47:49;6.50;;;1.30;;
1412;SDS011;701;52.526;13.408;2023-03-05T15:50:16;8.82;;;3.85;;
1412;SDS011;701;52.526;13.408;2023-03-05T15:52:42;8.53;;;1.60;;
1412;SDS011;701;52.526;13.408;2023-03-05T15:55:08;8.02;;;1.73;;
1412;SDS011;701;52.526;13.408;2023-03-05T15:57:35;5.05;;;1.30;;
1412;SDS011;701;52.526;13.408;2023-03-05T16:00:05;8.00;;;1.23;;
1412;SDS011;701;52.526;13.408;2023-03-05T16:02:35;6.23;;;1.03;;
1412;SDS011;701;52.526;13.408;2023-03-05T16:05:01;5.72;;;1.40;;
1412;SDS011;701;52.526;13.408;2023-03-05T16:07:27;5.97;;;1.60;;
1412;SDS011;701;52.526;13.408;2023-03-05T16:09:53;8.48;;;1.90;;
1412;SDS011;701;52.526;13.408;2023-03-05T16:12:27;10.27;;;1.77;;
1412;SDS011;701;52.526;13.408;2023-03-05T16:14:57;6.77;;;1.43;;
1412;SDS011;701;52.526;13.408;2023-03-05T16:17:23;5.57;;;1.38;;
1412;SDS011;701;52.526;13.408;2023-03-05T16:19:51;9.38;;;1.92;;
1412;SDS011;701;52.526;13.408;2023-03-05T16:22:19;6.90;;;1.73;;
1412;SDS011;701;52.526;13.408;2023-03-05T16:24:45;8.30;;;1.93;;
1412;SDS011;701;52.526;13.408;2023-03-05T16:27:11;8.27;;;1.77;;
1412;SDS011;701;52.526;13.408;2023-03-05T16:29:37;8.63;;;1.80;;
1412;SDS011;701;52.526;13.408;2023-03-05T16:32:03;4.97;;;1.40;;
1412;SDS011;701;52.526;13.408;2023-03-05T16:34:30;9.18;;;2.35;;
1412;SDS011;701;52.526;13.408;2023-03-05T16:36:58;9.63;;;1.80;;
1412;SDS011;701;52.526;13.408;2023-03-05T16:39:26;6.23;;;1.70;;
1412;SDS011;701;52.526;13.408;2023-03-05T16:41:52;10.90;;;1.35;;
1412;SDS011;701;52.526;13.408;2023-03-05T16:44:18;7.38;;;1.70;;
1412;SDS011;701;52.526;13.408;2023-03-05T16:46:44;8.07;;;1.30;;
1412;SDS011;701;52.526;13.408;2023-03-05T16:49:13;8.85;;;1.88;;
1412;SDS011;701;52.526;13.408;2023-03-05T16:51:39;7.33;;;1.40;;
1412;SDS011;701;52.526;13.408;2023-03-05T16:54:05;8.63;;;2.20;;
1412;SDS011;701;52.526;13.408;2023-03-05T16:56:31;6.00;;;1.20;;
1412;SDS011;701;52.526;13.408;2023-03-05T16:58:57;7.13;;;1.97;;
1412;SDS011;701;52.526;13.408;2023-03-05T17:01:23;7.10;;;2.03;;
1412;SDS011;701;52.526;13.408;2023-03-05T17:03:49;6.07;;;1.35;;
1412;SDS011;701;52.526;13.408;2023-03-05T17:06:20;7.88;;;1.80;;
1412;SDS011;701;52.526;13.408;2023-03-05T17:08:48;9.00;;;1.57;;
1412;SDS011;701;52.526;13.408;2023-03-05T17:11:15;6.00;;;1.50;;
1412;SDS011;701;52.526;13.408;2023-03-05T17:13:42;6.97;;;1.90;;